Time;durP1;ratioP1;P1;durP2;ratioP2;P2;SDS_P1;SDS_P2;PMS_P1;PMS_P2;Temp;Humidity;BMP_temperature;BMP_pressure;BME280_temperature;BME280_humidity;BME280_pressure;Samples;Min_cycle;Max_cycle;Signal;HPM_P1;HPM_P2
2022/11/09 00:00:03;;;;;;;1.10;0.93;;;22.40;95.10;;;;;;5028055;28;20458;-35
2022/11/09 00:02:30;;;;;;;1.27;1.00;;;22.40;95.10;;;;;;5028966;28;20450;-34
2022/11/09 00:04:57;;;;;;;2.20;1.10;;;22.30;95.10;;;;;;5031615;28;20461;-35
2022/11/09 00:07:23;;;;;;;1.20;1.10;;;22.30;95.30;;;;;;5022903;28;20470;-40
2022/11/09 00:09:50;;;;;;;1.00;0.80;;;22.30;95.40;;;;;;5029986;28;21016;-34
2022/11/09 00:12:17;;;;;;;1.37;0.80;;;22.30;95.40;;;;;;5025470;28;20533;-34
2022/11/09 00:14:45;;;;;;;1.40;0.80;;;22.20;95.40;;;;;;5015430;28;21757;-42
2022/11/09 00:17:11;;;;;;;3.83;0.90;;;22.20;95.50;;;;;;5023176;28;20483;-34
2022/11/09 00:19:38;;;;;;;1.00;0.83;;;22.20;95.70;;;;;;5020687;28;20450;-37
2022/11/09 00:22:05;;;;;;;1.10;0.80;;;22.20;95.70;;;;;;5028560;28;20467;-37
2022/11/09 00:24:31;;;;;;;1.47;1.00;;;22.20;96.00;;;;;;5019087;28;20467;-35
2022/11/09 00:26:58;;;;;;;1.00;0.80;;;22.20;95.90;;;;;;5022379;28;20463;-38
2022/11/09 00:29:25;;;;;;;1.43;0.93;;;22.20;95.60;;;;;;5017478;28;20951;-34
2022/11/09 00:31:53;;;;;;;1.77;1.03;;;22.20;95.60;;;;;;5025336;28;20850;-34
2022/11/09 00:34:19;;;;;;;1.00;0.80;;;22.20;95.60;;;;;;5016371;28;20474;-37
2022/11/09 00:36:46;;;;;;;1.20;1.00;;;22.20;95.60;;;;;;5023974;28;20458;-39
2022/11/09 00:39:13;;;;;;;1.57;1.00;;;22.20;95.70;;;;;;5018207;28;20204;-37
2022/11/09 00:41:39;;;;;;;1.37;0.77;;;22.20;95.70;;;;;;5027835;28;20470;-34
2022/11/09 00:44:06;;;;;;;1.00;0.70;;;22.20;95.70;;;;;;5026042;28;20834;-40
2022/11/09 00:46:33;;;;;;;1.07;0.90;;;22.10;95.70;;;;;;5019424;28;20993;-34
2022/11/09 00:49:01;;;;;;;1.00;0.90;;;22.10;95.80;;;;;;5025969;28;20457;-34
2022/11/09 00:51:28;;;;;;;1.20;0.90;;;22.10;95.80;;;;;;5029935;28;20220;-37
2022/11/09 00:53:57;;;;;;;1.00;0.83;;;22.10;95.80;;;;;;5027679;28;20196;-38
2022/11/09 00:56:24;;;;;;;1.17;0.80;;;22.10;95.90;;;;;;5031147;28;20449;-33
2022/11/09 00:58:54;;;;;;;1.05;0.95;;;22.10;96.00;;;;;;5050455;28;20446;-36
2022/11/09 01:01:21;;;;;;;1.10;1.00;;;22.10;95.60;;;;;;5026156;28;20679;-37
2022/11/09 01:03:48;;;;;;;1.37;0.83;;;22.00;95.90;;;;;;5029236;28;20976;-34
2022/11/09 01:06:18;;;;;;;0.90;0.80;;;22.00;95.90;;;;;;5025818;28;20452;-36
2022/11/09 01:08:45;;;;;;;1.20;0.80;;;22.00;96.00;;;;;;5028634;28;20540;-34
2022/11/09 01:11:13;;;;;;;1.00;0.80;;;22.00;96.10;;;;;;5025568;28;20849;-37
2022/11/09 01:13:40;;;;;;;1.08;0.90;;;22.00;96.10;;;;;;5019855;28;20203;-38
2022/11/09 01:16:09;;;;;;;1.00;0.80;;;22.00;96.20;;;;;;5016776;28;20572;-37
2022/11/09 01:18:36;;;;;;;1.17;1.00;;;22.00;96.20;;;;;;5031498;28;20199;-34
2022/11/09 01:21:06;;;;;;;1.10;0.88;;;21.90;96.20;;;;;;5031804;28;20559;-37
2022/11/09 01:23:34;;;;;;;0.95;0.77;;;21.90;96.30;;;;;;5027811;28;20544;-34
2022/11/09 01:26:03;;;;;;;1.15;0.90;;;21.90;96.40;;;;;;5023166;28;20196;-41
2022/11/09 01:28:31;;;;;;;1.00;0.80;;;21.90;96.40;;;;;;5022498;28;20192;-41
2022/11/09 01:31:02;;;;;;;1.70;1.13;;;21.80;96.40;;;;;;5023248;28;20219;-34
2022/11/09 01:33:28;;;;;;;1.15;0.98;;;21.80;96.50;;;;;;5027663;28;20199;-34
2022/11/09 01:35:55;;;;;;;1.00;0.80;;;21.80;96.50;;;;;;5025625;28;20193;-40
2022/11/09 01:38:22;;;;;;;1.10;0.90;;;21.80;96.60;;;;;;5024565;28;20196;-37
2022/11/09 01:40:49;;;;;;;1.00;0.80;;;21.80;96.60;;;;;;5026837;28;20443;-46
2022/11/09 01:43:17;;;;;;;1.25;1.10;;;21.80;96.70;;;;;;5020658;28;20209;-33
2022/11/09 01:45:47;;;;;;;1.10;0.80;;;21.70;96.70;;;;;;5024150;28;20188;-34
2022/11/09 01:48:17;;;;;;;0.98;0.80;;;21.70;96.80;;;;;;5016207;28;20189;-35
2022/11/09 01:50:48;;;;;;;1.23;1.00;;;21.70;96.80;;;;;;5028384;28;20691;-36
2022/11/09 01:53:19;;;;;;;1.00;0.90;;;21.70;96.90;;;;;;5023102;28;20204;-34
2022/11/09 01:55:50;;;;;;;0.90;0.70;;;21.70;96.90;;;;;;5027176;28;20548;-35
2022/11/09 01:58:22;;;;;;;1.10;1.00;;;21.60;96.90;;;;;;5030883;28;20202;-34
2022/11/09 02:00:50;;;;;;;1.50;0.90;;;21.70;97.00;;;;;;5022139;28;20735;-34
2022/11/09 02:03:21;;;;;;;1.27;1.02;;;21.60;97.00;;;;;;5021949;28;20668;-36
2022/11/09 02:05:49;;;;;;;0.90;0.70;;;21.60;97.10;;;;;;5029783;28;20637;-34
2022/11/09 02:08:18;;;;;;;1.60;0.85;;;21.60;97.50;;;;;;5029062;28;20199;-42
2022/11/09 02:10:52;;;;;;;1.00;0.80;;;21.60;97.20;;;;;;5023805;28;20223;-34
2022/11/09 02:13:22;;;;;;;1.40;1.20;;;21.60;97.20;;;;;;5023950;28;20192;-35
2022/11/09 02:15:49;;;;;;;0.90;0.70;;;21.60;97.30;;;;;;5018048;28;20197;-36
2022/11/09 02:18:17;;;;;;;1.20;0.90;;;21.50;97.30;;;;;;5031482;28;20250;-37
2022/11/09 02:20:48;;;;;;;1.08;0.82;;;21.50;97.30;;;;;;5026684;28;20192;-38
2022/11/09 02:23:15;;;;;;;0.98;0.80;;;21.50;97.40;;;;;;5038591;28;20204;-35
2022/11/09 02:25:45;;;;;;;2.15;0.85;;;21.50;97.50;;;;;;5021122;28;20767;-48
2022/11/09 02:28:11;;;;;;;1.00;0.85;;;21.40;97.50;;;;;;5036060;28;20210;-34
2022/11/09 02:34:05;;;;;;;1.25;0.90;;;21.40;97.60;;;;;;5019687;28;20266;-43
2022/11/09 02:36:34;;;;;;;1.30;0.80;;;21.40;97.60;;;;;;5030485;28;20281;-37
2022/11/09 02:39:01;;;;;;;1.02;0.80;;;21.40;97.70;;;;;;5031069;28;20203;-38
2022/11/09 02:41:30;;;;;;;1.00;0.77;;;21.40;97.80;;;;;;5029232;28;20211;-48
2022/11/09 02:43:57;;;;;;;0.90;0.70;;;21.40;97.80;;;;;;5016741;28;20199;-36
2022/11/09 02:46:25;;;;;;;1.00;0.80;;;21.30;97.90;;;;;;5028425;28;20199;-42
2022/11/09 02:48:52;;;;;;;1.13;0.98;;;21.40;98.00;;;;;;5026587;28;20894;-34
2022/11/09 02:51:19;;;;;;;0.90;0.77;;;21.30;98.00;;;;;;5021056;28;20227;-50
2022/11/09 02:53:47;;;;;;;1.20;0.90;;;21.30;98.10;;;;;;5019751;28;20570;-34
2022/11/09 02:56:13;;;;;;;1.40;0.90;;;21.30;98.10;;;;;;5014107;28;20543;-37
2022/11/09 02:58:40;;;;;;;0.90;0.70;;;21.30;98.20;;;;;;5029432;28;20555;-34
2022/11/09 03:01:07;;;;;;;1.00;0.80;;;21.20;98.20;;;;;;5024737;28;20207;-37
2022/11/09 03:03:34;;;;;;;1.00;0.80;;;21.20;98.20;;;;;;5025803;28;20214;-34
2022/11/09 03:06:00;;;;;;;1.25;1.00;;;21.20;98.30;;;;;;5020567;28;20651;-37
2022/11/09 03:08:27;;;;;;;0.80;0.60;;;21.20;98.30;;;;;;5023810;28;20215;-37
2022/11/09 03:10:55;;;;;;;1.30;1.15;;;21.20;98.40;;;;;;5022299;28;20210;-36
2022/11/09 03:13:22;;;;;;;1.15;0.80;;;21.10;98.40;;;;;;5030440;28;20202;-44
2022/11/09 03:15:49;;;;;;;0.90;0.70;;;21.10;98.50;;;;;;5023969;28;20203;-35
2022/11/09 03:18:15;;;;;;;1.17;0.90;;;21.10;98.60;;;;;;5025365;28;20220;-36
2022/11/09 03:20:42;;;;;;;0.93;0.77;;;21.10;98.60;;;;;;5030915;28;20196;-34
2022/11/09 03:23:09;;;;;;;0.90;0.70;;;21.10;98.70;;;;;;5028442;28;20223;-34
2022/11/09 03:25:36;;;;;;;1.95;1.00;;;21.00;98.70;;;;;;5026770;28;20281;-39
2022/11/09 03:28:06;;;;;;;0.98;0.80;;;21.10;98.80;;;;;;5023836;28;20200;-41
2022/11/09 03:30:33;;;;;;;1.40;0.90;;;21.10;98.90;;;;;;5023046;28;20210;-42
2022/11/09 03:33:01;;;;;;;1.20;0.90;;;21.00;98.90;;;;;;5021576;28;20227;-34
2022/11/09 03:35:28;;;;;;;1.00;0.75;;;21.00;99.00;;;;;;5026952;28;20203;-36
2022/11/09 03:37:58;;;;;;;1.05;0.80;;;21.00;99.10;;;;;;5034097;28;20202;-37
2022/11/09 03:40:25;;;;;;;0.90;0.70;;;21.00;99.10;;;;;;5034701;28;20203;-33
2022/11/09 03:42:51;;;;;;;1.00;0.77;;;21.00;99.20;;;;;;5028929;28;20210;-43
2022/11/09 03:45:19;;;;;;;1.20;1.10;;;20.90;99.20;;;;;;5027745;28;20202;-35
2022/11/09 03:47:47;;;;;;;1.10;0.90;;;20.90;99.30;;;;;;5020139;28;20196;-33
2022/11/09 03:50:15;;;;;;;0.90;0.70;;;20.90;99.30;;;;;;5030708;28;20203;-44
2022/11/09 03:52:44;;;;;;;0.90;0.80;;;20.90;99.40;;;;;;5028694;28;20419;-42
2022/11/09 03:55:11;;;;;;;1.20;1.00;;;20.90;99.50;;;;;;5025675;28;20211;-33
2022/11/09 03:57:37;;;;;;;1.00;0.85;;;20.80;99.50;;;;;;5036464;28;20191;-33
2022/11/09 04:00:05;;;;;;;2.75;0.80;;;20.80;99.60;;;;;;5038066;28;20195;-44
2022/11/09 04:02:34;;;;;;;1.00;0.80;;;20.80;99.70;;;;;;5017810;28;20203;-36
2022/11/09 04:05:00;;;;;;;1.20;0.90;;;20.80;99.70;;;;;;5029745;28;20199;-35
2022/11/09 04:07:27;;;;;;;1.40;0.85;;;20.80;99.80;;;;;;5026484;28;20602;-33
2022/11/09 04:09:54;;;;;;;1.10;1.00;;;20.80;99.90;;;;;;5038555;28;20203;-34
2022/11/09 04:12:20;;;;;;;1.55;1.05;;;20.70;99.90;;;;;;5028413;28;20212;-38
2022/11/09 04:14:47;;;;;;;1.23;0.93;;;20.70;99.90;;;;;;5035054;28;20202;-34
2022/11/09 04:17:14;;;;;;;1.25;0.90;;;20.70;99.90;;;;;;5026471;28;20219;-47
2022/11/09 04:19:42;;;;;;;1.00;0.70;;;20.70;99.90;;;;;;5030827;28;20199;-36
2022/11/09 04:22:09;;;;;;;1.00;0.80;;;20.70;99.90;;;;;;5015834;28;21808;-36
2022/11/09 04:24:35;;;;;;;1.10;0.75;;;20.70;99.90;;;;;;5030324;28;20196;-33
2022/11/09 04:27:02;;;;;;;1.50;1.00;;;20.70;99.90;;;;;;5032878;28;20598;-34
2022/11/09 04:29:29;;;;;;;0.90;0.70;;;20.60;99.90;;;;;;5030506;28;20210;-45
2022/11/09 04:31:55;;;;;;;1.10;0.80;;;20.60;99.90;;;;;;5017768;28;20227;-34
2022/11/09 04:34:22;;;;;;;1.30;0.80;;;20.60;99.90;;;;;;5028439;28;20835;-34
2022/11/09 04:36:50;;;;;;;1.00;0.80;;;20.60;99.90;;;;;;5021948;28;20196;-38
2022/11/09 04:39:17;;;;;;;1.20;0.90;;;20.70;99.90;;;;;;5039552;28;20192;-37
2022/11/09 04:41:44;;;;;;;1.13;0.90;;;21.00;99.90;;;;;;5022731;28;20203;-47
2022/11/09 04:44:10;;;;;;;1.00;0.80;;;21.10;99.90;;;;;;5029977;28;20192;-34
2022/11/09 04:46:37;;;;;;;1.00;0.80;;;21.30;99.80;;;;;;5026327;28;20191;-37
2022/11/09 04:49:04;;;;;;;1.57;0.90;;;21.40;99.50;;;;;;5023293;28;20652;-33
2022/11/09 04:51:30;;;;;;;1.10;0.80;;;21.50;99.30;;;;;;5028513;28;20477;-33
2022/11/09 04:53:58;;;;;;;0.90;0.70;;;21.60;99.10;;;;;;5028898;28;20458;-40
2022/11/09 04:56:25;;;;;;;1.00;0.80;;;21.60;98.90;;;;;;5035678;28;20836;-37
2022/11/09 04:58:52;;;;;;;1.00;0.80;;;21.70;99.10;;;;;;5027040;28;20816;-35
2022/11/09 05:01:19;;;;;;;1.00;0.80;;;21.70;98.70;;;;;;5020220;28;20203;-34
2022/11/09 05:03:45;;;;;;;1.20;1.03;;;21.80;98.60;;;;;;5020549;28;20542;-40
2022/11/09 05:08:59;;;;;;;1.23;0.80;;;21.90;98.60;;;;;;5026155;28;20531;-35
2022/11/09 05:11:26;;;;;;;1.17;0.80;;;21.90;98.20;;;;;;5026860;28;20965;-34
2022/11/09 05:13:53;;;;;;;1.10;0.80;;;21.90;98.10;;;;;;5024789;28;20467;-34
2022/11/09 05:16:20;;;;;;;1.00;0.80;;;21.90;98.00;;;;;;5025130;28;20478;-40
2022/11/09 05:18:47;;;;;;;1.00;0.70;;;22.00;98.00;;;;;;5010823;28;20525;-40
2022/11/09 05:21:14;;;;;;;1.00;0.70;;;22.00;97.80;;;;;;5028058;28;20473;-40
2022/11/09 05:23:58;;;;;;;1.20;0.80;;;22.10;97.70;;;;;;5017087;28;20466;-43
2022/11/09 05:26:27;;;;;;;1.00;0.80;;;22.10;97.60;;;;;;5025798;28;20488;-35
2022/11/09 05:28:54;;;;;;;1.00;0.80;;;22.10;97.50;;;;;;5030245;28;20459;-47
2022/11/09 05:31:21;;;;;;;1.07;0.73;;;22.10;97.50;;;;;;5031106;28;20453;-34
2022/11/09 05:33:49;;;;;;;1.13;1.00;;;22.10;97.40;;;;;;5029858;28;20470;-42
2022/11/09 05:36:16;;;;;;;0.97;0.77;;;22.10;97.40;;;;;;5025598;28;20501;-37
2022/11/09 05:38:43;;;;;;;1.03;0.80;;;22.10;97.40;;;;;;5028658;28;20810;-35
2022/11/09 05:41:10;;;;;;;1.10;0.80;;;22.10;97.40;;;;;;5028122;28;20454;-36
2022/11/09 05:43:38;;;;;;;1.10;0.80;;;22.10;97.40;;;;;;5035105;28;20453;-36
2022/11/09 05:46:05;;;;;;;1.87;0.70;;;22.10;97.40;;;;;;5029232;28;20949;-37
2022/11/09 05:48:32;;;;;;;1.33;0.80;;;22.10;97.40;;;;;;5034635;28;20461;-33
2022/11/09 05:51:01;;;;;;;1.00;0.80;;;22.10;97.30;;;;;;5027052;28;20462;-37
2022/11/09 05:53:28;;;;;;;1.10;0.83;;;22.10;97.60;;;;;;5040052;28;20482;-39
2022/11/09 05:55:55;;;;;;;1.03;0.70;;;22.10;97.30;;;;;;5038595;28;20442;-41
2022/11/09 05:58:21;;;;;;;0.90;0.70;;;22.00;97.30;;;;;;5031640;28;20465;-34
2022/11/09 06:00:49;;;;;;;2.80;0.90;;;22.00;97.30;;;;;;5023275;28;20475;-33
2022/11/09 06:03:16;;;;;;;1.63;1.00;;;22.00;97.30;;;;;;5031029;28;20787;-37
2022/11/09 06:05:43;;;;;;;0.90;0.80;;;22.10;97.30;;;;;;5024308;28;20486;-37
2022/11/09 06:08:12;;;;;;;1.27;0.90;;;22.00;97.30;;;;;;5033575;28;20466;-34
2022/11/09 06:10:39;;;;;;;0.90;0.73;;;22.00;97.30;;;;;;5033535;28;20489;-37
2022/11/09 06:13:06;;;;;;;1.10;0.73;;;22.10;97.30;;;;;;5023120;28;20835;-40
2022/11/09 06:15:33;;;;;;;1.00;0.80;;;22.10;97.30;;;;;;5026551;28;20454;-37
2022/11/09 06:18:01;;;;;;;1.10;0.80;;;22.10;97.20;;;;;;5021563;28;21581;-34
2022/11/09 06:20:28;;;;;;;0.97;0.73;;;22.10;97.20;;;;;;5022146;28;20458;-35
2022/11/09 06:22:56;;;;;;;1.00;0.80;;;22.10;97.20;;;;;;5027719;28;20485;-36
2022/11/09 06:25:23;;;;;;;0.80;0.70;;;22.10;97.10;;;;;;5039218;28;21453;-33
2022/11/09 06:27:50;;;;;;;1.00;0.80;;;22.20;97.00;;;;;;5034487;28;20455;-34
2022/11/09 06:30:17;;;;;;;1.10;0.90;;;22.20;96.90;;;;;;5023343;28;20457;-42
2022/11/09 06:32:44;;;;;;;1.00;0.90;;;22.20;96.80;;;;;;5023795;28;20487;-37
2022/11/09 06:35:12;;;;;;;0.90;0.80;;;22.30;96.70;;;;;;5031295;28;20462;-34
2022/11/09 06:37:38;;;;;;;1.03;0.73;;;22.40;96.60;;;;;;5029634;28;20476;-34
2022/11/09 06:40:06;;;;;;;1.00;0.70;;;22.40;96.40;;;;;;5034291;28;20533;-39
2022/11/09 06:42:33;;;;;;;1.20;0.77;;;22.50;96.20;;;;;;5028647;28;20494;-33
2022/11/09 06:45:00;;;;;;;0.90;0.70;;;22.60;96.10;;;;;;5027585;28;20458;-37
2022/11/09 06:47:27;;;;;;;1.10;0.80;;;22.60;95.90;;;;;;5027692;28;20952;-34
2022/11/09 06:49:54;;;;;;;1.20;0.80;;;22.60;95.80;;;;;;5025064;28;20455;-34
2022/11/09 06:52:22;;;;;;;0.90;0.60;;;22.60;95.80;;;;;;5019531;28;20486;-34
2022/11/09 06:54:49;;;;;;;1.00;0.80;;;22.60;96.10;;;;;;5035149;28;20454;-45
2022/11/09 06:57:16;;;;;;;1.07;0.77;;;22.60;95.70;;;;;;5016333;28;20477;-34
2022/11/09 06:59:43;;;;;;;1.10;0.80;;;22.50;95.70;;;;;;5026229;28;20469;-39
2022/11/09 07:02:15;;;;;;;2.17;0.87;;;22.50;96.00;;;;;;5026451;28;20466;-41
2022/11/09 07:04:42;;;;;;;1.03;0.70;;;22.50;95.70;;;;;;5024422;28;20473;-41
2022/11/09 07:07:08;;;;;;;1.10;0.70;;;22.50;95.70;;;;;;5030269;28;20450;-46
2022/11/09 07:09:36;;;;;;;0.90;0.70;;;22.50;95.70;;;;;;5034604;28;20454;-39
2022/11/09 07:12:03;;;;;;;0.80;0.63;;;22.40;95.70;;;;;;5015470;28;20466;-54
2022/11/09 07:14:30;;;;;;;1.13;0.83;;;22.50;95.80;;;;;;5026900;28;20473;-44
2022/11/09 07:16:57;;;;;;;0.90;0.70;;;22.50;95.80;;;;;;5026222;28;20482;-40
2022/11/09 07:19:23;;;;;;;1.00;0.80;;;22.50;95.70;;;;;;5023088;28;20743;-39
2022/11/09 07:21:50;;;;;;;1.03;0.70;;;22.50;95.70;;;;;;5022752;28;20470;-44
2022/11/09 07:24:17;;;;;;;1.17;0.70;;;22.50;95.60;;;;;;5020823;28;20468;-39
2022/11/09 07:26:47;;;;;;;0.90;0.70;;;22.50;95.60;;;;;;5022630;28;20516;-38
2022/11/09 07:29:13;;;;;;;0.80;0.60;;;22.50;95.50;;;;;;5018728;28;20450;-39
2022/11/09 07:31:40;;;;;;;1.13;0.70;;;22.50;95.40;;;;;;5025432;28;20454;-44
2022/11/09 07:34:07;;;;;;;1.47;0.90;;;22.60;95.40;;;;;;5026304;28;20484;-41
2022/11/09 07:36:35;;;;;;;1.00;0.80;;;22.60;95.40;;;;;;5023606;28;20458;-40
2022/11/09 07:39:03;;;;;;;0.80;0.60;;;22.60;95.30;;;;;;5022987;28;20810;-39
2022/11/09 07:41:29;;;;;;;0.93;0.83;;;22.60;95.30;;;;;;5024429;28;20466;-41
2022/11/09 07:43:57;;;;;;;1.00;0.60;;;22.60;95.20;;;;;;5015784;28;20439;-39
2022/11/09 07:46:24;;;;;;;0.90;0.70;;;22.70;95.20;;;;;;5026865;28;20473;-46
2022/11/09 07:48:51;;;;;;;0.93;0.70;;;22.70;95.00;;;;;;5026099;28;20462;-41
2022/11/09 07:51:18;;;;;;;0.90;0.70;;;22.70;94.90;;;;;;5021182;28;20469;-40
2022/11/09 07:53:44;;;;;;;0.90;0.73;;;22.80;94.90;;;;;;5014111;28;20493;-46
2022/11/09 07:56:11;;;;;;;1.30;1.20;;;22.80;94.80;;;;;;5030038;28;20458;-43
2022/11/09 07:58:38;;;;;;;1.00;0.70;;;22.80;94.70;;;;;;5022394;28;20865;-38
2022/11/09 08:01:08;;;;;;;1.03;0.73;;;22.80;94.70;;;;;;5028664;28;20466;-46
2022/11/09 08:03:35;;;;;;;1.00;0.90;;;22.80;94.60;;;;;;5020703;28;20467;-41
2022/11/09 08:06:02;;;;;;;1.00;0.83;;;22.90;94.60;;;;;;5029707;28;20457;-39
2022/11/09 08:08:29;;;;;;;1.20;0.90;;;22.90;94.50;;;;;;5030358;28;20460;-43
2022/11/09 08:10:57;;;;;;;1.10;0.80;;;22.90;94.50;;;;;;5033376;28;20458;-39
2022/11/09 08:13:23;;;;;;;1.10;0.87;;;22.90;94.50;;;;;;5029874;28;20474;-40
2022/11/09 08:15:50;;;;;;;1.20;0.80;;;22.90;94.40;;;;;;5028142;28;20796;-41
2022/11/09 08:18:20;;;;;;;0.90;0.63;;;22.90;94.30;;;;;;5025993;28;20473;-47
2022/11/09 08:20:47;;;;;;;0.90;0.70;;;22.90;94.30;;;;;;5023213;28;20460;-48
2022/11/09 08:23:15;;;;;;;0.90;0.70;;;23.00;94.30;;;;;;5025390;28;20474;-44
2022/11/09 08:25:42;;;;;;;0.90;0.70;;;23.00;94.20;;;;;;5030676;28;20457;-43
2022/11/09 08:28:09;;;;;;;4.27;1.60;;;21.90;90.90;;;;;;5030463;28;20466;-39
2022/11/09 08:30:35;;;;;;;5.40;1.80;;;21.10;92.20;;;;;;5024491;28;20950;-40
2022/11/09 08:33:03;;;;;;;3.60;1.40;;;;;;;;;;5022933;28;20250;-41
2022/11/09 08:35:32;;;;;;;3.42;1.67;;;19.70;95.10;;;;;;5031006;28;20187;-41
2022/11/09 08:38:01;;;;;;;3.67;1.38;;;19.30;97.80;;;;;;5028620;28;20677;-42
2022/11/09 08:40:28;;;;;;;2.83;1.10;;;19.20;97.90;;;;;;5031050;28;20282;-41
2022/11/09 08:42:55;;;;;;;2.08;1.00;;;19.10;98.30;;;;;;5027204;28;20689;-42
2022/11/09 08:45:22;;;;;;;6.18;2.03;;;19.00;98.40;;;;;;5026686;28;20192;-42
2022/11/09 08:47:48;;;;;;;1.55;1.10;;;19.20;99.60;;;;;;5025039;28;20207;-34
2022/11/09 08:50:15;;;;;;;2.70;1.30;;;19.80;99.90;;;;;;5021956;28;20230;-42
2022/11/09 08:52:43;;;;;;;4.43;1.02;;;20.70;99.20;;;;;;5026871;28;20583;-34
2022/11/09 08:55:10;;;;;;;1.55;1.00;;;21.20;97.80;;;;;;5028777;28;20192;-41
2022/11/09 08:57:37;;;;;;;4.00;1.20;;;21.40;97.20;;;;;;5033473;28;20203;-34
2022/11/09 09:00:05;;;;;;;1.30;0.80;;;21.50;96.90;;;;;;5022358;28;20463;-49
2022/11/09 09:02:32;;;;;;;1.80;1.10;;;21.70;96.70;;;;;;5015755;28;20471;-38
2022/11/09 09:04:58;;;;;;;2.27;0.90;;;21.70;96.50;;;;;;5020972;28;20458;-32
2022/11/09 09:07:25;;;;;;;1.80;1.00;;;21.80;96.40;;;;;;5028319;28;20450;-32
2022/11/09 09:09:53;;;;;;;1.00;0.80;;;21.80;96.30;;;;;;5012640;28;20811;-35
2022/11/09 09:12:20;;;;;;;2.03;1.20;;;21.80;96.20;;;;;;5025092;28;20466;-40
2022/11/09 09:14:47;;;;;;;1.73;1.20;;;21.90;96.20;;;;;;5025483;28;21099;-34
2022/11/09 09:17:14;;;;;;;1.87;1.10;;;21.90;96.10;;;;;;5032463;28;20493;-42
2022/11/09 09:19:40;;;;;;;6.30;1.20;;;21.90;96.10;;;;;;5020809;28;20467;-34
2022/11/09 09:22:07;;;;;;;2.90;0.90;;;22.00;96.10;;;;;;5021782;28;20983;-33
2022/11/09 09:24:34;;;;;;;1.67;0.97;;;22.00;96.20;;;;;;5032121;28;20461;-33
2022/11/09 09:27:02;;;;;;;3.00;1.00;;;22.00;96.30;;;;;;5033549;28;20457;-35
2022/11/09 09:29:29;;;;;;;3.83;0.90;;;22.00;96.30;;;;;;5028353;28;21067;-34
2022/11/09 09:31:56;;;;;;;2.23;1.10;;;22.10;96.40;;;;;;5023318;28;20462;-33
2022/11/09 09:34:22;;;;;;;1.47;0.90;;;22.10;96.40;;;;;;5030465;28;20488;-52
2022/11/09 09:36:51;;;;;;;1.73;1.10;;;22.10;96.40;;;;;;5030038;28;20463;-33
2022/11/09 09:39:18;;;;;;;1.83;0.93;;;22.10;96.40;;;;;;5033624;28;20469;-43
2022/11/09 09:41:51;;;;;;;3.83;1.13;;;22.10;96.80;;;;;;5032054;28;20477;-43
2022/11/09 09:44:27;;;;;;;1.20;0.83;;;22.10;97.20;;;;;;5026453;28;20546;-43
2022/11/09 09:47:04;;;;;;;1.10;0.73;;;22.10;97.10;;;;;;5022252;28;20836;-33
2022/11/09 09:49:36;;;;;;;1.10;1.00;;;22.10;97.10;;;;;;5022318;28;20463;-43
2022/11/09 09:52:12;;;;;;;1.67;1.00;;;22.10;97.20;;;;;;5024464;28;20462;-39
2022/11/09 09:54:41;;;;;;;3.90;1.20;;;22.10;97.50;;;;;;5028906;28;21019;-44
2022/11/09 09:57:17;;;;;;;5.80;1.20;;;22.10;97.80;;;;;;5028382;28;20461;-36
2022/11/09 09:59:49;;;;;;;6.53;1.00;;;22.10;98.00;;;;;;5020784;28;20830;-35
2022/11/09 10:02:21;;;;;;;1.30;0.90;;;22.10;98.10;;;;;;5029048;28;20572;-36
2022/11/09 10:04:48;;;;;;;5.13;1.07;;;22.10;98.20;;;;;;5020575;28;20462;-33
2022/11/09 10:07:21;;;;;;;2.10;0.90;;;22.10;98.20;;;;;;5023825;28;20450;-40
2022/11/09 10:10:15;;;;;;;1.80;1.10;;;22.10;98.00;;;;;;5027643;28;20447;-33
2022/11/09 10:13:04;;;;;;;2.93;1.13;;;22.10;97.90;;;;;;5027079;28;20447;-38
2022/11/09 10:15:44;;;;;;;9.13;1.20;;;22.10;97.40;;;;;;5026746;28;20469;-41
2022/11/09 10:18:36;;;;;;;4.40;1.03;;;22.10;97.50;;;;;;5029268;28;20486;-37
2022/11/09 10:21:15;;;;;;;2.37;0.97;;;22.00;97.40;;;;;;5016366;28;20979;-51
2022/11/09 10:23:51;;;;;;;1.83;0.97;;;22.00;97.40;;;;;;5029877;28;20454;-39
2022/11/09 10:26:22;;;;;;;20.13;1.00;;;22.00;97.40;;;;;;5035177;28;20443;-38
2022/11/09 10:28:55;;;;;;;2.63;1.67;;;22.00;97.40;;;;;;5021986;28;20459;-43
2022/11/09 10:31:24;;;;;;;1.23;0.90;;;22.00;97.40;;;;;;5020937;28;20465;-36
2022/11/09 10:33:55;;;;;;;0.90;0.80;;;21.90;97.40;;;;;;5024581;28;20470;-47
2022/11/09 10:36:28;;;;;;;2.97;1.10;;;21.90;97.60;;;;;;5028287;28;20463;-34
2022/11/09 10:38:59;;;;;;;3.10;1.10;;;21.90;97.40;;;;;;5032443;28;20976;-40
2022/11/09 10:41:30;;;;;;;4.33;1.23;;;21.90;97.40;;;;;;5029479;28;20463;-35
2022/11/09 10:43:57;;;;;;;1.63;0.97;;;21.90;97.40;;;;;;5030568;28;20877;-32
2022/11/09 10:46:25;;;;;;;2.70;1.10;;;21.90;97.40;;;;;;5031981;28;20957;-44
2022/11/09 10:48:54;;;;;;;1.40;0.80;;;21.90;97.40;;;;;;5028563;28;20965;-35
2022/11/09 10:51:34;;;;;;;1.60;0.80;;;21.80;97.40;;;;;;5027553;28;20462;-33
2022/11/09 10:54:20;;;;;;;1.87;0.90;;;21.90;97.50;;;;;;5033023;28;20865;-33
2022/11/09 10:56:49;;;;;;;1.43;0.97;;;21.80;97.40;;;;;;5029415;28;20454;-33
2022/11/09 10:59:40;;;;;;;1.17;0.90;;;21.80;97.40;;;;;;5028411;28;20968;-36
2022/11/09 11:02:46;;;;;;;1.98;1.23;;;21.80;97.40;;;;;;5024522;28;20462;-33
2022/11/09 11:05:31;;;;;;;2.40;1.47;;;21.80;97.50;;;;;;5031825;28;20199;-34
2022/11/09 11:08:19;;;;;;;2.00;1.00;;;21.80;97.50;;;;;;5023676;28;20443;-34
2022/11/09 11:10:46;;;;;;;1.70;0.90;;;21.80;97.50;;;;;;5025830;28;20454;-34
2022/11/09 11:13:22;;;;;;;3.33;1.03;;;21.70;97.40;;;;;;5025283;28;20909;-35
2022/11/09 11:15:49;;;;;;;1.30;0.90;;;21.70;97.40;;;;;;5027894;28;20438;-33
2022/11/09 11:18:20;;;;;;;1.20;0.80;;;21.70;97.50;;;;;;5025960;28;20486;-33
2022/11/09 11:20:47;;;;;;;2.50;1.00;;;21.70;97.50;;;;;;5017634;28;21167;-28
2022/11/09 11:23:17;;;;;;;5.93;2.40;;;21.40;90.20;;;;;;5024039;28;20980;-32
2022/11/09 11:26:02;;;;;;;4.47;1.33;;;20.00;92.70;;;;;;5022920;28;20198;-30
2022/11/09 11:28:36;;;;;;;6.72;1.95;;;19.50;92.20;;;;;;5027729;28;20657;-32
2022/11/09 11:31:03;;;;;;;7.10;1.52;;;19.10;91.30;;;;;;5022171;28;20203;-31
2022/11/09 11:33:33;;;;;;;2.80;1.60;;;19.10;92.10;;;;;;5027249;28;20614;-31
2022/11/09 11:36:11;;;;;;;2.55;1.35;;;19.00;92.50;;;;;;5030538;28;20195;-33
2022/11/09 11:38:41;;;;;;;5.88;1.40;;;19.00;92.70;;;;;;5031366;28;20291;-35
2022/11/09 11:41:26;;;;;;;3.90;1.20;;;18.60;92.90;;;;;;5019270;28;20273;-29
2022/11/09 11:44:01;;;;;;;4.25;1.25;;;18.90;93.70;;;;;;5032668;28;20205;-29
2022/11/09 11:46:38;;;;;;;4.10;1.65;;;19.10;93.10;;;;;;5027471;28;20677;-30
2022/11/09 11:49:36;;;;;;;4.15;1.20;;;18.80;93.20;;;;;;5028101;28;20195;-29
2022/11/09 11:52:11;;;;;;;2.85;1.75;;;18.70;93.30;;;;;;5029344;28;20188;-31
2022/11/09 11:54:48;;;;;;;3.30;1.58;;;18.60;92.80;;;;;;5028397;28;20223;-29
2022/11/09 11:57:22;;;;;;;2.58;1.42;;;18.70;93.40;;;;;;5025986;28;20207;-30
2022/11/09 12:00:03;;;;;;;6.15;1.35;;;18.70;91.90;;;;;;5025255;28;20223;-30
2022/11/09 12:03:04;;;;;;;3.35;1.70;;;18.60;92.40;;;;;;5014550;28;20204;-46
2022/11/09 12:06:10;;;;;;;1.50;1.00;;;18.50;95.70;;;;;;5028079;28;20561;-45
2022/11/09 12:08:52;;;;;;;4.47;1.70;;;19.50;96.50;;;;;;5029786;28;20198;-48
2022/11/09 12:11:28;;;;;;;5.40;2.08;;;20.00;96.20;;;;;;5028789;28;20195;-47
2022/11/09 12:14:06;;;;;;;5.85;1.42;;;20.30;96.00;;;;;;5024136;28;20242;-44
2022/11/09 12:16:40;;;;;;;2.65;1.20;;;20.50;96.20;;;;;;5028128;28;20552;-49
2022/11/09 12:19:28;;;;;;;2.38;0.93;;;20.70;96.30;;;;;;5021334;28;20192;-49
2022/11/09 12:22:03;;;;;;;3.97;1.33;;;20.80;96.30;;;;;;5027667;28;20201;-44
2022/11/09 12:24:37;;;;;;;2.33;1.17;;;21.00;96.30;;;;;;5027719;28;20222;-45
2022/11/09 12:27:33;;;;;;;2.15;1.20;;;21.10;96.20;;;;;;5020561;28;20199;-46
2022/11/09 12:30:09;;;;;;;2.33;1.10;;;21.20;96.30;;;;;;5030477;28;20610;-47
2022/11/09 12:32:41;;;;;;;1.70;1.00;;;21.40;96.40;;;;;;5021520;28;20208;-47
2022/11/09 12:35:28;;;;;;;2.37;1.10;;;21.60;96.20;;;;;;5015156;28;20482;-46
2022/11/09 12:38:02;;;;;;;4.23;1.50;;;21.80;96.00;;;;;;5027404;28;20458;-50
2022/11/09 12:40:32;;;;;;;2.27;0.90;;;21.90;96.10;;;;;;5028432;28;20465;-47
2022/11/09 12:43:05;;;;;;;1.50;1.00;;;21.90;96.20;;;;;;5022971;28;20466;-44
2022/11/09 12:45:35;;;;;;;2.40;1.30;;;21.90;96.30;;;;;;5034747;28;20457;-44
2022/11/09 12:48:06;;;;;;;1.77;1.00;;;21.90;96.40;;;;;;5027982;28;20455;-45
2022/11/09 12:50:34;;;;;;;2.17;1.33;;;21.90;96.60;;;;;;5027875;28;20860;-43
2022/11/09 12:53:03;;;;;;;1.67;1.17;;;21.90;96.70;;;;;;5029510;28;20850;-46
2022/11/09 12:55:42;;;;;;;2.60;1.10;;;21.90;96.80;;;;;;5030841;28;20466;-47
2022/11/09 12:58:20;;;;;;;1.40;0.97;;;22.00;96.80;;;;;;5027014;28;20459;-44
2022/11/09 13:00:50;;;;;;;1.43;0.90;;;22.00;96.80;;;;;;5029052;28;20442;-44
2022/11/09 13:03:22;;;;;;;1.30;0.93;;;22.10;96.70;;;;;;5027356;28;20474;-48
2022/11/09 13:06:08;;;;;;;2.80;1.10;;;22.10;96.60;;;;;;5028103;28;20858;-46